createdAt,value
2023-02-06T00:01:26.940Z,1028.39
2023-02-06T00:03:59.914Z,1028.39
2023-02-06T00:06:32.978Z,1028.38
2023-02-06T00:09:05.888Z,1028.38
2023-02-06T00:11:38.932Z,1028.38
2023-02-06T00:14:11.922Z,1028.37
2023-02-06T00:16:44.930Z,1028.37
2023-02-06T00:19:17.930Z,1028.38
2023-02-06T00:21:51.044Z,1028.39
2023-02-06T00:24:24.999Z,1028.42
2023-02-06T00:26:57.903Z,1028.42
2023-02-06T00:29:30.997Z,1028.43
2023-02-06T00:32:03.949Z,1028.44
2023-02-06T00:34:36.946Z,1028.45
2023-02-06T00:37:09.854Z,1028.48
2023-02-06T00:39:42.918Z,1028.51
2023-02-06T00:42:15.942Z,1028.51
2023-02-06T00:44:48.996Z,1028.53
2023-02-06T00:47:21.945Z,1028.52
2023-02-06T00:49:55.062Z,1028.54
2023-02-06T00:52:27.899Z,1028.53
2023-02-06T00:55:01.001Z,1028.54
2023-02-06T00:57:34.011Z,1028.56
2023-02-06T01:00:06.941Z,1028.59
2023-02-06T01:02:39.966Z,1028.61
2023-02-06T01:05:12.986Z,1028.63
2023-02-06T01:07:46.037Z,1028.65
2023-02-06T01:10:19.064Z,1028.68
2023-02-06T01:12:52.027Z,1028.69
2023-02-06T01:15:24.992Z,1028.68
2023-02-06T01:17:57.958Z,1028.68
2023-02-06T01:20:31.095Z,1028.71
2023-02-06T01:23:03.671Z,1028.73
2023-02-06T01:25:37.328Z,1028.75
2023-02-06T01:28:09.935Z,1028.77
2023-02-06T01:30:42.786Z,1028.79
2023-02-06T01:33:15.975Z,1028.81
2023-02-06T01:35:49.041Z,1028.82
2023-02-06T01:38:22.141Z,1028.82
2023-02-06T01:40:54.994Z,1028.81
2023-02-06T01:43:28.079Z,1028.80
2023-02-06T01:46:01.020Z,1028.80
2023-02-06T01:48:33.999Z,1028.81
2023-02-06T01:51:07.130Z,1028.78
2023-02-06T01:53:40.039Z,1028.75
2023-02-06T01:56:13.033Z,1028.72
2023-02-06T01:58:46.008Z,1028.69
2023-02-06T02:01:19.171Z,1028.66
2023-02-06T02:03:52.037Z,1028.66
2023-02-06T02:06:25.089Z,1028.63
2023-02-06T02:08:58.497Z,1028.62
2023-02-06T02:11:31.131Z,1028.63
2023-02-06T02:14:04.022Z,1028.64
2023-02-06T02:16:37.174Z,1028.66
2023-02-06T02:19:10.088Z,1028.68
2023-02-06T02:21:43.133Z,1028.69
2023-02-06T02:24:16.104Z,1028.70
2023-02-06T02:26:49.157Z,1028.72
2023-02-06T02:29:22.090Z,1028.73
2023-02-06T02:31:55.188Z,1028.73
2023-02-06T02:34:28.139Z,1028.73
2023-02-06T02:37:01.098Z,1028.73
2023-02-06T02:39:33.825Z,1028.73
2023-02-06T02:42:07.221Z,1028.72
2023-02-06T02:44:40.076Z,1028.69
2023-02-06T02:47:13.217Z,1028.69
2023-02-06T02:49:46.110Z,1028.68
2023-02-06T02:52:19.247Z,1028.66
2023-02-06T02:54:52.009Z,1028.63
2023-02-06T02:57:25.131Z,1028.62
2023-02-06T02:59:58.126Z,1028.61
2023-02-06T03:02:31.318Z,1028.61
2023-02-06T03:05:04.262Z,1028.61
2023-02-06T03:07:37.270Z,1028.64
2023-02-06T03:10:10.117Z,1028.65
2023-02-06T03:12:43.255Z,1028.65
2023-02-06T03:15:16.154Z,1028.66
2023-02-06T03:17:49.226Z,1028.65
2023-02-06T03:20:22.174Z,1028.65
2023-02-06T03:22:55.161Z,1028.66
2023-02-06T03:25:28.094Z,1028.67
2023-02-06T03:28:15.203Z,1028.67
2023-02-06T03:30:48.173Z,1028.67
2023-02-06T03:33:21.269Z,1028.68
2023-02-06T03:35:53.891Z,1028.67
2023-02-06T03:38:27.313Z,1028.66
2023-02-06T03:41:00.204Z,1028.66
2023-02-06T03:43:33.166Z,1028.66
2023-02-06T03:46:06.326Z,1028.64
2023-02-06T03:48:39.273Z,1028.65
2023-02-06T03:51:12.243Z,1028.66
2023-02-06T03:53:45.248Z,1028.69
2023-02-06T03:56:18.134Z,1028.71
2023-02-06T03:58:51.263Z,1028.71
2023-02-06T04:01:24.247Z,1028.72
2023-02-06T04:03:57.330Z,1028.72
2023-02-06T04:06:30.275Z,1028.74
2023-02-06T04:09:03.273Z,1028.75
2023-02-06T04:11:36.235Z,1028.76
2023-02-06T04:14:09.202Z,1028.76
2023-02-06T04:16:42.241Z,1028.75
2023-02-06T04:19:15.366Z,1028.75
2023-02-06T04:21:48.220Z,1028.75
2023-02-06T04:24:21.201Z,1028.77
2023-02-06T04:27:08.240Z,1028.77
2023-02-06T04:29:41.268Z,1028.78
2023-02-06T04:32:14.399Z,1028.76
2023-02-06T04:34:47.380Z,1028.77
2023-02-06T04:37:20.133Z,1028.77
2023-02-06T04:39:53.198Z,1028.77
2023-02-06T04:42:26.038Z,1028.77
2023-02-06T04:44:59.155Z,1028.77
2023-02-06T04:47:32.175Z,1028.77
2023-02-06T04:50:05.255Z,1028.77
2023-02-06T04:52:38.398Z,1028.74
2023-02-06T04:55:11.335Z,1028.72
2023-02-06T04:57:44.385Z,1028.70
2023-02-06T05:00:17.284Z,1028.69
2023-02-06T05:02:50.287Z,1028.69
2023-02-06T05:05:23.323Z,1028.69
2023-02-06T05:07:56.078Z,1028.70
2023-02-06T05:10:29.168Z,1028.70
2023-02-06T05:13:02.044Z,1028.68
2023-02-06T05:15:35.586Z,1028.70
2023-02-06T05:18:08.075Z,1028.73
2023-02-06T05:20:41.048Z,1028.77
2023-02-06T05:23:14.078Z,1028.81
2023-02-06T05:25:47.141Z,1028.83
2023-02-06T05:28:20.175Z,1028.83
2023-02-06T05:30:53.251Z,1028.81
2023-02-06T05:33:26.259Z,1028.79
2023-02-06T05:35:59.438Z,1028.78
2023-02-06T05:38:32.289Z,1028.77
2023-02-06T05:41:05.491Z,1028.76
2023-02-06T05:43:38.294Z,1028.76
2023-02-06T05:46:11.526Z,1028.74
2023-02-06T05:48:44.096Z,1028.75
2023-02-06T05:51:18.340Z,1028.76
2023-02-06T05:53:51.501Z,1028.75
2023-02-06T05:56:25.503Z,1028.74
2023-02-06T05:58:58.407Z,1028.73
2023-02-06T06:01:31.495Z,1028.71
2023-02-06T06:04:04.502Z,1028.72
2023-02-06T06:06:37.126Z,1028.71
2023-02-06T06:09:10.386Z,1028.71
2023-02-06T06:11:43.542Z,1028.71
2023-02-06T06:14:16.416Z,1028.71
2023-02-06T06:16:49.500Z,1028.70
2023-02-06T06:19:22.185Z,1028.67
2023-02-06T06:21:58.103Z,1028.64
2023-02-06T06:24:28.534Z,1028.62
2023-02-06T06:27:01.429Z,1028.59
2023-02-06T06:29:34.508Z,1028.57
2023-02-06T06:32:07.562Z,1028.58
2023-02-06T06:34:40.553Z,1028.57
2023-02-06T06:37:13.494Z,1028.58
2023-02-06T06:39:46.552Z,1028.59
2023-02-06T06:42:19.622Z,1028.62
2023-02-06T06:44:52.469Z,1028.62
2023-02-06T06:47:25.470Z,1028.63
2023-02-06T06:49:58.480Z,1028.64
2023-02-06T06:52:31.534Z,1028.65
2023-02-06T06:55:04.526Z,1028.66
2023-02-06T06:57:37.791Z,1028.66
2023-02-06T07:00:10.598Z,1028.70
2023-02-06T07:02:43.639Z,1028.73
2023-02-06T07:05:16.502Z,1028.75
2023-02-06T07:07:49.610Z,1028.79
2023-02-06T07:10:22.597Z,1028.82
2023-02-06T07:12:55.515Z,1028.85
2023-02-06T07:15:28.634Z,1028.86
2023-02-06T07:18:01.636Z,1028.87
2023-02-06T07:20:34.606Z,1028.89
2023-02-06T07:23:07.649Z,1028.91
2023-02-06T07:25:40.683Z,1028.92
2023-02-06T07:28:14.649Z,1028.95
2023-02-06T07:30:47.619Z,1028.94
2023-02-06T07:33:20.529Z,1028.94
2023-02-06T07:35:53.599Z,1028.95
2023-02-06T07:38:26.581Z,1028.97
2023-02-06T07:40:59.632Z,1028.98
2023-02-06T07:43:32.643Z,1028.98
2023-02-06T07:46:05.617Z,1028.99
2023-02-06T07:48:38.464Z,1028.99
2023-02-06T07:51:11.568Z,1028.98
2023-02-06T07:53:44.603Z,1028.99
2023-02-06T07:56:17.634Z,1028.99
2023-02-06T07:58:50.733Z,1028.99
2023-02-06T08:01:23.664Z,1028.98
2023-02-06T08:03:56.549Z,1028.95
2023-02-06T08:06:29.728Z,1028.91
2023-02-06T08:09:02.621Z,1028.89
2023-02-06T08:11:35.557Z,1028.88
2023-02-06T08:14:08.831Z,1028.86
2023-02-06T08:16:41.774Z,1028.85
2023-02-06T08:19:14.723Z,1028.84
2023-02-06T08:21:47.578Z,1028.83
2023-02-06T08:24:20.713Z,1028.82
2023-02-06T08:26:56.658Z,1028.81
2023-02-06T08:29:29.615Z,1028.83
2023-02-06T08:32:02.753Z,1028.87
2023-02-06T08:34:35.754Z,1028.88
2023-02-06T08:37:08.711Z,1028.86
2023-02-06T08:39:41.474Z,1028.84
2023-02-06T08:42:14.669Z,1028.83
2023-02-06T08:44:47.802Z,1028.81
2023-02-06T08:47:20.738Z,1028.81
2023-02-06T08:49:53.720Z,1028.81
2023-02-06T08:52:26.726Z,1028.82
2023-02-06T08:54:59.787Z,1028.81
2023-02-06T08:57:32.738Z,1028.79
2023-02-06T09:00:05.720Z,1028.76
2023-02-06T09:02:38.780Z,1028.75
2023-02-06T09:05:11.801Z,1028.74
2023-02-06T09:07:44.728Z,1028.73
2023-02-06T09:10:27.209Z,1028.72
2023-02-06T09:12:50.675Z,1028.73
2023-02-06T09:15:23.802Z,1028.71
2023-02-06T09:17:56.725Z,1028.71
2023-02-06T09:20:29.700Z,1028.72
2023-02-06T09:23:05.730Z,1028.74
2023-02-06T09:25:38.775Z,1028.75
2023-02-06T09:28:11.874Z,1028.75
2023-02-06T09:30:44.887Z,1028.76
2023-02-06T09:33:17.697Z,1028.76
2023-02-06T09:35:50.803Z,1028.77
2023-02-06T09:38:23.726Z,1028.76
2023-02-06T09:40:56.872Z,1028.77
2023-02-06T09:43:29.915Z,1028.78
2023-02-06T09:46:04.109Z,1028.78
2023-02-06T09:48:39.683Z,1028.76
2023-02-06T09:51:12.930Z,1028.75
2023-02-06T09:53:46.722Z,1028.74
2023-02-06T09:56:19.746Z,1028.73
2023-02-06T09:58:52.833Z,1028.71
2023-02-06T10:01:25.987Z,1028.69
2023-02-06T10:03:58.881Z,1028.64
2023-02-06T10:06:31.820Z,1028.61
2023-02-06T10:09:04.856Z,1028.55
2023-02-06T10:11:37.785Z,1028.52
2023-02-06T10:14:10.582Z,1028.49
2023-02-06T10:16:43.900Z,1028.46
2023-02-06T10:19:16.892Z,1028.46
2023-02-06T10:21:49.753Z,1028.43
2023-02-06T10:24:22.758Z,1028.41
2023-02-06T10:26:55.889Z,1028.38
2023-02-06T10:29:28.664Z,1028.37
2023-02-06T10:32:02.042Z,1028.35
2023-02-06T10:34:34.844Z,1028.34
2023-02-06T10:37:07.842Z,1028.31
2023-02-06T10:39:40.723Z,1028.28
2023-02-06T10:42:13.743Z,1028.24
2023-02-06T10:44:51.395Z,1028.22
2023-02-06T10:47:19.725Z,1028.17
2023-02-06T10:49:52.637Z,1028.12
2023-02-06T10:52:25.876Z,1028.09
2023-02-06T10:54:58.874Z,1028.09
2023-02-06T10:57:31.702Z,1028.06
2023-02-06T11:00:04.641Z,1028.02
2023-02-06T11:02:37.973Z,1028.00
2023-02-06T11:05:10.958Z,1027.97
2023-02-06T11:07:43.823Z,1027.94
2023-02-06T11:10:16.994Z,1027.91
2023-02-06T11:12:49.614Z,1027.88
2023-02-06T11:15:22.762Z,1027.87
2023-02-06T11:17:55.801Z,1027.82
2023-02-06T11:20:28.920Z,1027.78
2023-02-06T11:23:01.916Z,1027.74
2023-02-06T11:25:35.358Z,1027.70
2023-02-06T11:28:08.122Z,1027.67
2023-02-06T11:30:41.632Z,1027.66
2023-02-06T11:33:14.926Z,1027.64
2023-02-06T11:35:47.890Z,1027.63
2023-02-06T11:38:21.027Z,1027.62
2023-02-06T11:40:54.012Z,1027.58
2023-02-06T11:43:27.003Z,1027.56
2023-02-06T11:45:59.993Z,1027.53
2023-02-06T11:48:32.891Z,1027.49
2023-02-06T11:51:06.026Z,1027.46
2023-02-06T11:53:39.018Z,1027.45
2023-02-06T11:56:11.967Z,1027.45
2023-02-06T11:58:44.965Z,1027.41
2023-02-06T12:01:18.077Z,1027.38
2023-02-06T12:03:51.007Z,1027.38
2023-02-06T12:06:23.973Z,1027.36
2023-02-06T12:08:57.012Z,1027.35
2023-02-06T12:11:29.675Z,1027.34
2023-02-06T12:14:02.968Z,1027.31
2023-02-06T12:16:35.778Z,1027.29
2023-02-06T12:19:08.718Z,1027.24
2023-02-06T12:21:41.813Z,1027.21
2023-02-06T12:24:16.796Z,1027.19
2023-02-06T12:26:49.692Z,1027.17
2023-02-06T12:29:22.757Z,1027.16
2023-02-06T12:31:55.903Z,1027.15
2023-02-06T12:34:28.847Z,1027.12
2023-02-06T12:37:01.801Z,1027.09
2023-02-06T12:39:34.780Z,1027.07
2023-02-06T12:42:07.819Z,1027.06
2023-02-06T12:44:40.933Z,1027.02
2023-02-06T12:47:13.750Z,1027.00
2023-02-06T12:49:46.997Z,1026.99
2023-02-06T12:52:19.909Z,1026.98
2023-02-06T12:54:52.840Z,1026.97
2023-02-06T12:57:25.883Z,1026.94
2023-02-06T12:59:59.028Z,1026.91
2023-02-06T13:02:31.987Z,1026.87
2023-02-06T13:05:04.790Z,1026.85
2023-02-06T13:07:48.796Z,1026.82
2023-02-06T13:10:10.781Z,1026.81
2023-02-06T13:12:43.775Z,1026.80
2023-02-06T13:15:16.775Z,1026.81
2023-02-06T13:17:49.974Z,1026.78
2023-02-06T13:20:23.051Z,1026.76
2023-02-06T13:22:55.908Z,1026.75
2023-02-06T13:25:28.909Z,1026.73
2023-02-06T13:28:01.973Z,1026.71
2023-02-06T13:30:34.808Z,1026.71
2023-02-06T13:33:07.968Z,1026.71
2023-02-06T13:35:41.088Z,1026.71
2023-02-06T13:38:13.916Z,1026.73
2023-02-06T13:40:46.921Z,1026.75
2023-02-06T13:43:20.139Z,1026.74
2023-02-06T13:45:52.894Z,1026.73
2023-02-06T13:48:26.010Z,1026.73
2023-02-06T13:50:58.941Z,1026.70
2023-02-06T13:53:32.020Z,1026.69
2023-02-06T13:56:04.847Z,1026.67
2023-02-06T13:58:38.210Z,1026.65
2023-02-06T14:01:10.846Z,1026.61
2023-02-06T14:03:43.891Z,1026.59
2023-02-06T14:06:17.164Z,1026.60
2023-02-06T14:08:50.004Z,1026.58
2023-02-06T14:11:22.872Z,1026.56
2023-02-06T14:13:55.861Z,1026.56
2023-02-06T14:16:28.967Z,1026.56
2023-02-06T14:19:02.237Z,1026.57
2023-02-06T14:21:34.881Z,1026.60
2023-02-06T14:24:07.895Z,1026.62
2023-02-06T14:26:41.060Z,1026.62
2023-02-06T14:29:14.149Z,1026.64
2023-02-06T14:31:46.931Z,1026.64
2023-02-06T14:34:19.975Z,1026.63
2023-02-06T14:36:53.132Z,1026.62
2023-02-06T14:39:25.944Z,1026.61
2023-02-06T14:41:59.044Z,1026.59
2023-02-06T14:44:32.276Z,1026.57
2023-02-06T14:47:05.071Z,1026.56
2023-02-06T14:49:38.168Z,1026.53
2023-02-06T14:52:10.958Z,1026.52
2023-02-06T14:54:44.112Z,1026.50
2023-02-06T14:57:17.024Z,1026.46
2023-02-06T14:59:50.177Z,1026.42
2023-02-06T15:02:22.997Z,1026.40
2023-02-06T15:04:55.926Z,1026.38
2023-02-06T15:07:29.257Z,1026.38
2023-02-06T15:10:02.281Z,1026.38
2023-02-06T15:12:35.222Z,1026.37
2023-02-06T15:15:08.120Z,1026.34
2023-02-06T15:17:41.237Z,1026.32
2023-02-06T15:20:13.990Z,1026.28
2023-02-06T15:22:47.002Z,1026.26
2023-02-06T15:25:20.144Z,1026.22
2023-02-06T15:27:53.190Z,1026.20
2023-02-06T15:30:26.143Z,1026.18
2023-02-06T15:32:59.117Z,1026.17
2023-02-06T15:35:35.010Z,1026.16
2023-02-06T15:38:21.943Z,1026.17
2023-02-06T15:40:55.086Z,1026.18
2023-02-06T15:43:28.003Z,1026.17
2023-02-06T15:46:01.176Z,1026.18
2023-02-06T15:48:34.095Z,1026.18
2023-02-06T15:51:07.199Z,1026.18
2023-02-06T15:53:40.288Z,1026.17
2023-02-06T15:56:13.324Z,1026.17
2023-02-06T15:58:46.230Z,1026.16
2023-02-06T16:01:19.378Z,1026.14
2023-02-06T16:03:52.193Z,1026.15
2023-02-06T16:06:25.185Z,1026.15
2023-02-06T16:08:58.241Z,1026.17
2023-02-06T16:11:31.408Z,1026.17
2023-02-06T16:14:04.091Z,1026.17
2023-02-06T16:16:37.272Z,1026.18
2023-02-06T16:19:10.189Z,1026.18
2023-02-06T16:21:43.074Z,1026.20
2023-02-06T16:24:16.243Z,1026.21
2023-02-06T16:26:49.200Z,1026.23
2023-02-06T16:29:22.192Z,1026.23
2023-02-06T16:31:55.406Z,1026.27
2023-02-06T16:34:28.076Z,1026.30
2023-02-06T16:37:01.081Z,1026.34
2023-02-06T16:39:34.212Z,1026.37
2023-02-06T16:42:07.286Z,1026.41
2023-02-06T16:44:45.083Z,1026.44
2023-02-06T16:47:13.116Z,1026.45
2023-02-06T16:49:46.257Z,1026.48
2023-02-06T16:52:19.102Z,1026.49
2023-02-06T16:54:52.280Z,1026.50
2023-02-06T16:57:25.186Z,1026.53
2023-02-06T16:59:58.285Z,1026.56
2023-02-06T17:02:31.401Z,1026.57
2023-02-06T17:05:04.492Z,1026.59
2023-02-06T17:07:37.282Z,1026.60
2023-02-06T17:10:10.150Z,1026.62
2023-02-06T17:12:43.314Z,1026.63
2023-02-06T17:15:16.483Z,1026.63
2023-02-06T17:17:49.153Z,1026.65
2023-02-06T17:20:22.260Z,1026.67
2023-02-06T17:22:55.238Z,1026.68
2023-02-06T17:25:28.366Z,1026.67
2023-02-06T17:28:01.450Z,1026.69
2023-02-06T17:30:34.220Z,1026.71
2023-02-06T17:33:07.240Z,1026.73
2023-02-06T17:35:40.358Z,1026.76
2023-02-06T17:38:13.164Z,1026.78
2023-02-06T17:40:46.405Z,1026.80
2023-02-06T17:43:19.240Z,1026.80
2023-02-06T17:45:58.221Z,1026.77
2023-02-06T17:48:31.336Z,1026.78
2023-02-06T17:51:04.382Z,1026.76
2023-02-06T17:53:37.416Z,1026.73
2023-02-06T17:56:10.234Z,1026.70
2023-02-06T17:58:43.305Z,1026.69
2023-02-06T18:01:16.312Z,1026.69
2023-02-06T18:03:49.260Z,1026.68
2023-02-06T18:06:22.358Z,1026.67
2023-02-06T18:08:55.444Z,1026.65
2023-02-06T18:11:28.471Z,1026.62
2023-02-06T18:14:01.315Z,1026.61
2023-02-06T18:16:34.268Z,1026.59
2023-02-06T18:19:10.232Z,1026.58
2023-02-06T18:21:43.227Z,1026.59
2023-02-06T18:24:16.269Z,1026.59
2023-02-06T18:26:49.470Z,1026.56
2023-02-06T18:29:22.444Z,1026.54
2023-02-06T18:31:55.235Z,1026.53
2023-02-06T18:34:28.377Z,1026.53
2023-02-06T18:37:01.273Z,1026.54
2023-02-06T18:39:34.415Z,1026.53
2023-02-06T18:42:07.307Z,1026.52
2023-02-06T18:44:40.338Z,1026.50
2023-02-06T18:47:13.359Z,1026.49
2023-02-06T18:49:46.395Z,1026.50
2023-02-06T18:52:19.276Z,1026.49
2023-02-06T18:54:52.299Z,1026.48
2023-02-06T18:57:25.347Z,1026.46
2023-02-06T18:59:58.660Z,1026.44
2023-02-06T19:02:31.543Z,1026.43
2023-02-06T19:05:04.528Z,1026.44
2023-02-06T19:07:37.415Z,1026.45
2023-02-06T19:10:10.293Z,1026.45
2023-02-06T19:12:43.633Z,1026.47
2023-02-06T19:15:16.744Z,1026.46
2023-02-06T19:17:49.614Z,1026.47
2023-02-06T19:20:22.293Z,1026.47
2023-02-06T19:22:57.481Z,1026.48
2023-02-06T19:25:30.462Z,1026.49
2023-02-06T19:28:03.487Z,1026.53
2023-02-06T19:30:36.947Z,1026.56
2023-02-06T19:33:09.368Z,1026.60
2023-02-06T19:35:42.409Z,1026.62
2023-02-06T19:38:15.701Z,1026.65
2023-02-06T19:40:48.425Z,1026.68
2023-02-06T19:43:21.605Z,1026.72
2023-02-06T19:45:55.310Z,1026.76
2023-02-06T19:48:28.473Z,1026.81
2023-02-06T19:51:01.496Z,1026.84
2023-02-06T19:53:34.755Z,1026.86
2023-02-06T19:56:07.426Z,1026.89
2023-02-06T19:58:40.510Z,1026.91
2023-02-06T20:01:13.427Z,1026.93
2023-02-06T20:03:46.649Z,1026.95
2023-02-06T20:06:19.579Z,1026.99
2023-02-06T20:08:52.394Z,1027.03
2023-02-06T20:11:25.466Z,1027.06
2023-02-06T20:13:58.443Z,1027.10
2023-02-06T20:16:31.671Z,1027.14
2023-02-06T20:19:04.417Z,1027.16
2023-02-06T20:21:39.228Z,1027.19
2023-02-06T20:24:10.449Z,1027.21
2023-02-06T20:26:43.688Z,1027.22
2023-02-06T20:29:16.469Z,1027.20
2023-02-06T20:31:56.128Z,1027.20
2023-02-06T20:34:28.799Z,1027.19
2023-02-06T20:37:01.458Z,1027.17
2023-02-06T20:39:34.760Z,1027.18
2023-02-06T20:42:07.528Z,1027.19
2023-02-06T20:44:40.542Z,1027.22
2023-02-06T20:47:13.450Z,1027.21
2023-02-06T20:49:46.600Z,1027.21
2023-02-06T20:52:19.839Z,1027.21
2023-02-06T20:54:52.467Z,1027.23
2023-02-06T20:57:25.981Z,1027.25
2023-02-06T20:59:58.497Z,1027.27
2023-02-06T21:02:31.533Z,1027.25
2023-02-06T21:05:04.467Z,1027.25
2023-02-06T21:07:37.474Z,1027.24
2023-02-06T21:10:10.483Z,1027.24
2023-02-06T21:12:43.476Z,1027.24
2023-02-06T21:15:16.630Z,1027.24
2023-02-06T21:17:49.601Z,1027.25
2023-02-06T21:20:22.509Z,1027.23
2023-02-06T21:22:55.555Z,1027.20
2023-02-06T21:25:28.556Z,1027.18
2023-02-06T21:28:01.810Z,1027.18
2023-02-06T21:30:34.682Z,1027.18
2023-02-06T21:33:07.876Z,1027.15
2023-02-06T21:35:40.789Z,1027.13
2023-02-06T21:38:13.745Z,1027.13
2023-02-06T21:40:46.733Z,1027.11
2023-02-06T21:43:22.728Z,1027.09
2023-02-06T21:45:57.851Z,1027.07
2023-02-06T21:48:28.803Z,1027.05
2023-02-06T21:51:01.864Z,1027.06
2023-02-06T21:53:34.926Z,1027.06
2023-02-06T21:56:07.855Z,1027.07
2023-02-06T21:58:40.931Z,1027.08
2023-02-06T22:01:13.624Z,1027.08
2023-02-06T22:03:46.730Z,1027.10
2023-02-06T22:06:19.718Z,1027.10
2023-02-06T22:08:52.599Z,1027.10
2023-02-06T22:11:25.758Z,1027.08
2023-02-06T22:13:58.696Z,1027.07
2023-02-06T22:16:31.896Z,1027.08
2023-02-06T22:19:05.037Z,1027.10
2023-02-06T22:21:38.844Z,1027.08
2023-02-06T22:24:11.951Z,1027.07
2023-02-06T22:26:44.918Z,1027.05
2023-02-06T22:29:17.882Z,1027.03
2023-02-06T22:31:51.014Z,1027.02
2023-02-06T22:34:23.919Z,1027.01
2023-02-06T22:36:56.978Z,1026.99
2023-02-06T22:39:29.881Z,1026.95
2023-02-06T22:42:03.045Z,1026.91
2023-02-06T22:44:35.916Z,1026.89
2023-02-06T22:47:08.916Z,1026.89
2023-02-06T22:49:42.034Z,1026.92
2023-02-06T22:52:14.807Z,1026.95
2023-02-06T22:54:47.938Z,1027.00
2023-02-06T22:57:20.947Z,1027.04
2023-02-06T22:59:53.708Z,1027.09
2023-02-06T23:02:27.109Z,1027.12
2023-02-06T23:05:01.041Z,1027.17
2023-02-06T23:07:33.988Z,1027.19
2023-02-06T23:10:06.966Z,1027.21
2023-02-06T23:12:39.962Z,1027.21
2023-02-06T23:15:12.928Z,1027.22
2023-02-06T23:17:46.054Z,1027.22
2023-02-06T23:20:19.069Z,1027.22
2023-02-06T23:22:51.934Z,1027.21
2023-02-06T23:25:24.958Z,1027.23
2023-02-06T23:27:57.968Z,1027.23
2023-02-06T23:30:36.832Z,1027.24
2023-02-06T23:33:10.070Z,1027.24
2023-02-06T23:35:43.230Z,1027.25
2023-02-06T23:38:16.923Z,1027.24
2023-02-06T23:40:49.851Z,1027.23
2023-02-06T23:43:23.016Z,1027.21
2023-02-06T23:45:55.907Z,1027.21
2023-02-06T23:48:29.121Z,1027.22
2023-02-06T23:51:01.998Z,1027.24
2023-02-06T23:53:35.031Z,1027.26
2023-02-06T23:56:08.025Z,1027.30
2023-02-06T23:58:41.021Z,1027.31
